Time;durP1;ratioP1;P1;durP2;ratioP2;P2;SDS_P1;SDS_P2;PMS_P1;PMS_P2;Temp;Humidity;BMP_temperature;BMP_pressure;BME280_temperature;BME280_humidity;BME280_pressure;Samples;Min_cycle;Max_cycle;Signal;HPM_P1;HPM_P2
2023/06/16 03:58:57;;;;;;;11.38;6.87;;;;;;;19.23;66.09;100106.59;5606305;31;77544;-55
2023/06/16 04:02:06;;;;;;;13.95;6.75;;;;;;;19.23;66.09;100106.59;5583487;32;33452;-55
2023/06/16 04:05:09;;;;;;;13.07;6.18;;;;;;;18.80;67.48;100118.13;5583068;32;33336;-55
2023/06/16 04:08:12;;;;;;;8.95;5.75;;;;;;;18.85;65.80;100112.47;5583568;31;33585;-55
2023/06/16 04:11:15;;;;;;;7.12;5.78;;;;;;;18.92;68.62;100114.63;5583347;32;33737;-55
2023/06/16 04:14:17;;;;;;;8.02;6.07;;;;;;;18.95;64.20;100109.28;5583175;31;34532;-55
2023/06/16 04:17:20;;;;;;;7.00;6.00;;;;;;;19.02;73.29;100119.56;5583377;31;33211;-55
2023/06/16 04:20:22;;;;;;;8.68;6.50;;;;;;;19.01;65.64;100118.00;5583435;31;34329;-55
2023/06/16 04:23:25;;;;;;;7.80;5.55;;;;;;;19.15;64.72;100114.91;5583359;32;33569;-55
2023/06/16 04:26:28;;;;;;;7.07;5.45;;;;;;;19.28;63.25;100116.44;5583047;32;33642;-55
2023/06/16 04:29:32;;;;;;;9.65;5.72;;;;;;;19.28;65.55;100116.44;5583132;31;34442;-56
2023/06/16 04:32:36;;;;;;;8.60;5.62;;;;;;;19.39;63.10;100122.97;5583208;32;34445;-55
2023/06/16 04:35:39;;;;;;;7.15;5.60;;;;;;;19.37;64.56;100110.84;5583092;31;33375;-55
2023/06/16 04:38:42;;;;;;;8.52;5.97;;;;;;;19.42;62.57;100111.41;5583008;32;34433;-57
2023/06/16 04:41:44;;;;;;;7.57;5.80;;;;;;;19.49;62.41;100108.88;5583273;32;34450;-56
2023/06/16 04:44:47;;;;;;;8.90;5.90;;;;;;;19.52;62.28;100104.69;5582524;31;33382;-56
2023/06/16 04:47:53;;;;;;;8.65;5.28;;;;;;;19.66;61.75;100107.81;5583064;31;34265;-56
2023/06/16 04:50:57;;;;;;;8.95;5.87;;;;;;;19.77;60.41;100104.56;5579544;32;33689;-55
2023/06/16 04:54:00;;;;;;;7.57;5.82;;;;;;;19.80;62.17;100103.88;5563124;31;34399;-56
2023/06/16 04:57:02;;;;;;;11.55;6.60;;;;;;;19.88;63.93;100100.22;5562971;32;33685;-55
2023/06/16 05:00:07;;;;;;;10.32;6.70;;;;;;;19.78;65.95;100100.72;5563409;32;33943;-56
2023/06/16 05:03:10;;;;;;;13.60;6.60;;;;;;;19.66;65.87;100104.28;5562806;32;33474;-56
2023/06/16 05:06:12;;;;;;;11.20;6.50;;;;;;;19.74;66.55;100099.84;5563222;32;34248;-56
2023/06/16 05:09:16;;;;;;;12.15;6.60;;;;;;;19.69;66.46;100106.31;5554235;32;33474;-56
2023/06/16 05:12:18;;;;;;;9.27;5.95;;;;;;;19.72;67.22;100102.91;5549503;32;33645;-56
2023/06/16 05:15:20;;;;;;;9.60;6.25;;;;;;;19.72;72.05;100102.91;5548123;32;34389;-56
2023/06/16 05:18:23;;;;;;;13.62;6.40;;;;;;;19.80;68.76;100104.69;5548204;32;33476;-56
2023/06/16 05:21:26;;;;;;;9.80;6.20;;;;;;;19.85;68.54;100117.25;5549549;32;33505;-56
2023/06/16 05:24:29;;;;;;;9.35;6.72;;;;;;;19.78;68.32;100112.41;5549565;32;34933;-56
2023/06/16 05:27:32;;;;;;;9.55;5.80;;;;;;;19.86;68.93;100114.16;5549515;32;33649;-57
2023/06/16 05:30:35;;;;;;;18.87;6.50;;;;;;;19.93;68.15;100108.94;5549846;32;33262;-56
2023/06/16 05:33:37;;;;;;;8.48;6.15;;;;;;;19.89;68.79;100108.00;5549243;32;33677;-55
2023/06/16 05:36:40;;;;;;;8.25;6.37;;;;;;;19.95;70.12;100103.12;5548953;32;33702;-56
2023/06/16 05:39:43;;;;;;;9.55;6.60;;;;;;;20.00;73.68;100118.37;5549711;32;33262;-56
2023/06/16 05:42:46;;;;;;;12.27;6.35;;;;;;;20.06;73.73;100111.53;5549951;32;33465;-57
2023/06/16 05:45:48;;;;;;;11.85;6.50;;;;;;;20.10;71.04;100117.88;5549667;32;33661;-57
2023/06/16 05:48:52;;;;;;;11.52;6.70;;;;;;;20.19;71.32;100118.47;5548084;32;33584;-56
2023/06/16 05:51:57;;;;;;;15.88;6.22;;;;;;;20.30;72.63;100121.50;5551561;32;33728;-56
2023/06/16 05:55:00;;;;;;;22.42;6.53;;;;;;;20.33;69.90;100113.41;5555892;32;34425;-57
2023/06/16 05:58:04;;;;;;;10.55;6.80;;;;;;;20.44;70.52;100118.31;5557575;31;31794;-57
2023/06/16 06:01:07;;;;;;;11.93;6.18;;;;;;;20.35;68.18;100115.75;5565783;32;33356;-56
2023/06/16 06:04:12;;;;;;;10.98;5.70;;;;;;;20.47;73.66;100121.13;5568888;32;33400;-57
2023/06/16 06:07:15;;;;;;;7.53;5.82;;;;;;;20.53;69.37;100124.38;5568694;32;32186;-57
2023/06/16 06:10:18;;;;;;;16.17;6.20;;;;;;;20.54;68.16;100121.31;5568947;32;33395;-56
2023/06/16 06:13:22;;;;;;;8.63;5.70;;;;;;;20.56;68.74;100120.94;5560739;32;34490;-56
2023/06/16 06:16:27;;;;;;;10.43;5.78;;;;;;;20.66;70.05;100114.97;5563499;32;32356;-57
2023/06/16 06:19:30;;;;;;;12.02;6.10;;;;;;;20.70;70.46;100123.22;5549225;32;33922;-56
2023/06/16 06:22:33;;;;;;;11.57;5.65;;;;;;;20.81;68.74;100118.81;5565896;32;33245;-57
2023/06/16 06:25:35;;;;;;;21.15;6.53;;;;;;;20.79;76.75;100131.97;5569398;31;34252;-57
2023/06/16 06:28:39;;;;;;;7.20;5.93;;;;;;;20.80;67.08;100137.09;5568920;31;34670;-57
2023/06/16 06:31:42;;;;;;;10.05;5.97;;;;;;;20.82;66.55;100131.28;5568520;31;32670;-57
2023/06/16 06:34:44;;;;;;;13.57;6.37;;;;;;;20.79;66.22;100123.81;5569164;32;33559;-56
2023/06/16 06:37:47;;;;;;;15.85;6.93;;;;;;;20.97;67.95;100125.00;5553194;31;31863;-57
2023/06/16 06:40:50;;;;;;;13.75;6.55;;;;;;;21.02;67.13;100129.38;5549764;32;33477;-57
2023/06/16 06:43:54;;;;;;;10.60;6.07;;;;;;;21.14;68.13;100136.66;5548061;32;34460;-57
2023/06/16 06:47:11;;;;;;;12.63;5.87;;;;;;;21.17;66.32;100134.00;5548060;32;33381;-56
2023/06/16 06:50:13;;;;;;;13.27;5.93;;;;;;;21.24;64.33;100142.31;5547966;32;34397;-57
2023/06/16 06:53:16;;;;;;;9.82;5.45;;;;;;;21.40;58.44;100139.56;5565861;32;33559;-56
2023/06/16 06:56:22;;;;;;;8.60;5.32;;;;;;;21.37;61.59;100140.28;5569048;32;33734;-56
2023/06/16 06:59:25;;;;;;;24.85;6.32;;;;;;;21.49;64.15;100147.50;5568902;32;33615;-56
2023/06/16 07:02:27;;;;;;;13.73;5.43;;;;;;;21.45;59.52;100146.66;5568560;32;33824;-56
2023/06/16 07:05:33;;;;;;;9.13;5.65;;;;;;;21.47;56.88;100139.69;5569219;32;34254;-56
2023/06/16 07:08:37;;;;;;;10.40;5.70;;;;;;;21.54;56.16;100142.56;5569032;32;33793;-55
2023/06/16 07:11:40;;;;;;;7.12;6.10;;;;;;;21.49;57.77;100139.31;5567452;32;33629;-56
2023/06/16 07:14:47;;;;;;;7.82;5.90;;;;;;;21.49;58.62;100144.78;5568153;32;33586;-55
2023/06/16 07:17:50;;;;;;;8.73;5.12;;;;;;;21.63;58.89;100147.03;5567728;32;34334;-56
2023/06/16 07:20:53;;;;;;;9.93;5.65;;;;;;;21.65;63.85;100144.69;5566588;32;34397;-56
2023/06/16 07:23:57;;;;;;;9.88;5.85;;;;;;;21.63;62.29;100147.81;5567846;32;34385;-57
2023/06/16 07:27:02;;;;;;;8.43;5.72;;;;;;;21.70;63.40;100152.59;5568383;32;34411;-56
2023/06/16 07:30:06;;;;;;;9.15;5.43;;;;;;;21.69;57.16;100157.28;5568228;32;33664;-57
2023/06/16 07:33:08;;;;;;;9.35;5.20;;;;;;;21.71;58.27;100154.19;5567788;32;33702;-56
2023/06/16 07:36:11;;;;;;;7.85;5.28;;;;;;;21.74;57.17;100153.47;5568103;32;33649;-55
2023/06/16 07:39:13;;;;;;;9.75;5.10;;;;;;;21.76;57.62;100153.91;5568645;32;33684;-56
2023/06/16 07:42:16;;;;;;;10.50;5.22;;;;;;;21.77;53.94;100158.19;5568374;32;34219;-56
2023/06/16 07:45:19;;;;;;;7.20;5.00;;;;;;;21.74;53.14;100156.97;5568172;32;33685;-56
2023/06/16 07:48:22;;;;;;;5.93;4.65;;;;;;;21.84;54.72;100161.06;5568405;32;33649;-56
2023/06/16 07:51:25;;;;;;;7.85;4.50;;;;;;;21.92;56.82;100154.59;5555345;32;33758;-56
2023/06/16 07:54:27;;;;;;;6.30;5.12;;;;;;;21.93;54.60;100155.37;5551557;32;33126;-56
2023/06/16 07:57:29;;;;;;;6.75;4.90;;;;;;;21.92;57.67;100159.22;5547665;32;33743;-56
2023/06/16 08:00:32;;;;;;;7.93;5.35;;;;;;;21.91;53.13;100160.41;5551505;32;33719;-57
2023/06/16 08:03:35;;;;;;;7.72;4.97;;;;;;;21.90;55.10;100162.34;5567405;32;34947;-57
2023/06/16 08:06:40;;;;;;;6.53;4.60;;;;;;;22.05;51.33;100160.66;5567171;32;34323;-56
2023/06/16 08:09:42;;;;;;;7.85;5.37;;;;;;;21.98;54.25;100163.25;5567566;32;33677;-57
2023/06/16 08:12:44;;;;;;;6.82;5.47;;;;;;;22.02;52.53;100156.72;5567701;32;33635;-57
2023/06/16 08:15:47;;;;;;;29.25;7.50;;;;;;;22.07;58.03;100158.34;5567282;32;33541;-57
2023/06/16 08:18:50;;;;;;;8.80;5.15;;;;;;;22.08;53.97;100156.41;5567538;32;33469;-56
2023/06/16 08:21:53;;;;;;;6.85;5.55;;;;;;;22.10;54.28;100154.91;5567380;32;34305;-57
2023/06/16 08:24:55;;;;;;;6.97;5.10;;;;;;;22.17;55.18;100165.97;5565587;32;34408;-57
2023/06/16 08:27:58;;;;;;;6.97;5.00;;;;;;;22.15;53.67;100160.09;5567214;32;33596;-57
2023/06/16 08:31:00;;;;;;;8.75;5.60;;;;;;;22.24;50.53;100154.38;5567582;32;33247;-56
2023/06/16 08:34:02;;;;;;;11.43;5.10;;;;;;;22.12;53.93;100157.25;5566709;32;33584;-57
2023/06/16 08:37:05;;;;;;;8.60;5.05;;;;;;;22.10;53.95;100152.16;5564026;32;33517;-57
2023/06/16 08:40:22;;;;;;;7.12;5.70;;;;;;;22.20;58.77;100154.31;5563868;32;33500;-56
2023/06/16 08:43:25;;;;;;;6.78;5.45;;;;;;;22.21;57.36;100164.06;5567927;32;33575;-57
2023/06/16 08:46:28;;;;;;;9.48;5.90;;;;;;;22.20;51.70;100162.50;5569811;32;34381;-56
2023/06/16 08:49:30;;;;;;;9.52;5.30;;;;;;;22.10;51.65;100154.91;5569542;32;33889;-57
2023/06/16 08:52:40;;;;;;;15.73;5.30;;;;;;;22.20;54.38;100164.47;5562550;31;33546;-57
2023/06/16 08:55:47;;;;;;;14.32;5.50;;;;;;;22.24;58.50;100159.84;5550458;32;33761;-57
2023/06/16 08:58:53;;;;;;;8.43;5.03;;;;;;;22.31;55.74;100159.16;5556257;32;34356;-57
2023/06/16 09:01:55;;;;;;;7.37;5.72;;;;;;;22.32;60.52;100161.56;5569727;32;34360;-57
2023/06/16 09:04:59;;;;;;;8.63;5.93;;;;;;;22.26;55.67;100152.87;5565131;32;33698;-57
2023/06/16 09:08:05;;;;;;;7.35;5.53;;;;;;;22.34;54.27;100156.50;5565899;32;33892;-57
2023/06/16 09:11:08;;;;;;;8.27;5.65;;;;;;;22.33;52.01;100154.16;5569456;32;34565;-56
2023/06/16 09:14:13;;;;;;;10.63;5.50;;;;;;;22.37;52.92;100157.72;5568548;32;33714;-57
2023/06/16 09:17:21;;;;;;;7.12;4.90;;;;;;;22.49;53.90;100155.59;5566131;32;33635;-56
2023/06/16 09:20:24;;;;;;;8.05;6.35;;;;;;;22.56;53.17;100154.91;5565210;32;33766;-56
2023/06/16 09:23:28;;;;;;;6.60;5.87;;;;;;;22.54;50.83;100150.97;5560801;32;34315;-56
2023/06/16 09:26:35;;;;;;;11.12;6.22;;;;;;;22.61;50.76;100151.06;5568980;32;34340;-56
2023/06/16 09:29:38;;;;;;;10.20;5.47;;;;;;;22.63;51.03;100146.03;5561660;32;34573;-56
2023/06/16 09:32:41;;;;;;;8.73;5.93;;;;;;;22.67;57.11;100149.59;5561619;32;33856;-56
2023/06/16 09:35:44;;;;;;;12.98;6.10;;;;;;;22.86;50.80;100141.31;5550731;32;34431;-56
2023/06/16 09:38:50;;;;;;;8.32;6.05;;;;;;;22.94;51.39;100151.19;5549986;32;33639;-57
2023/06/16 09:41:54;;;;;;;10.07;5.57;;;;;;;23.06;51.58;100141.22;5553752;32;33684;-56
2023/06/16 09:44:56;;;;;;;30.10;7.05;;;;;;;23.14;51.28;100140.12;5557278;32;33770;-56
2023/06/16 09:48:03;;;;;;;7.22;5.70;;;;;;;23.25;54.83;100138.34;5549295;32;33530;-57
2023/06/16 09:51:10;;;;;;;7.22;4.93;;;;;;;23.27;46.08;100132.47;5549652;32;34816;-56
2023/06/16 09:54:14;;;;;;;9.30;5.28;;;;;;;23.29;46.33;100135.66;5552259;32;33834;-56
2023/06/16 09:57:17;;;;;;;5.62;4.87;;;;;;;23.31;46.84;100134.12;5569182;32;33611;-56
2023/06/16 10:00:20;;;;;;;6.25;4.95;;;;;;;23.21;46.73;100123.81;5568925;32;33952;-56
2023/06/16 10:03:24;;;;;;;7.68;4.62;;;;;;;23.19;45.71;100124.19;5569732;32;33655;-57
2023/06/16 10:06:30;;;;;;;7.03;5.12;;;;;;;23.15;45.05;100120.62;5569129;32;34427;-57
2023/06/16 10:09:38;;;;;;;5.12;4.22;;;;;;;23.19;45.69;100117.94;5568947;32;34356;-55
2023/06/16 10:12:48;;;;;;;;;;;;;;;23.25;44.63;100113.72;5569697;32;33280;-56
2023/06/16 10:15:52;;;;;;;5.22;4.25;;;;;;;23.38;45.74;100114.28;5566999;32;33952;-56
2023/06/16 10:18:58;;;;;;;8.60;5.03;;;;;;;23.45;45.38;100106.13;5569227;32;33709;-56
2023/06/16 10:22:01;;;;;;;10.57;4.85;;;;;;;23.44;44.14;100107.28;5569428;32;33694;-56
2023/06/16 10:25:05;;;;;;;7.18;4.90;;;;;;;23.49;49.87;100109.69;5560680;32;34446;-57
2023/06/16 10:28:10;;;;;;;8.38;5.55;;;;;;;23.51;45.94;100098.37;5550376;32;34321;-56
2023/06/16 10:31:14;;;;;;;7.37;5.10;;;;;;;23.63;48.28;100109.06;5549528;32;33267;-56
2023/06/16 10:34:19;;;;;;;6.20;5.35;;;;;;;23.62;48.55;100099.28;5549850;32;33687;-57
2023/06/16 10:37:23;;;;;;;7.95;5.43;;;;;;;23.56;49.39;100098.03;5549576;32;33976;-56
2023/06/16 10:40:28;;;;;;;6.65;5.30;;;;;;;23.62;48.32;100086.38;5555935;32;33861;-57
2023/06/16 10:43:30;;;;;;;7.32;6.20;;;;;;;23.48;48.49;100093.66;5566490;32;33756;-57
2023/06/16 10:46:33;;;;;;;7.40;5.62;;;;;;;23.48;48.58;100093.66;5567481;32;33692;-56
2023/06/16 10:49:49;;;;;;;7.62;5.78;;;;;;;23.49;50.38;100095.25;5567247;32;33654;-56
2023/06/16 10:52:52;;;;;;;7.47;5.82;;;;;;;23.49;49.07;100092.50;5562921;32;34126;-56
2023/06/16 10:56:07;;;;;;;7.80;5.57;;;;;;;23.43;49.43;100084.63;5558309;32;33641;-57
2023/06/16 10:59:15;;;;;;;7.75;5.60;;;;;;;23.43;49.18;100087.34;5559875;32;33294;-56
2023/06/16 11:02:21;;;;;;;8.02;6.15;;;;;;;23.43;49.64;100087.34;5557331;32;32181;-56
2023/06/16 11:05:35;;;;;;;8.80;6.37;;;;;;;23.53;52.99;100079.66;5559058;32;33626;-56
2023/06/16 11:08:50;;;;;;;8.57;6.43;;;;;;;23.39;52.21;100078.31;5563392;32;34357;-56
2023/06/16 11:11:52;;;;;;;8.70;6.00;;;;;;;23.34;52.45;100083.34;5567446;32;34282;-56
2023/06/16 11:14:55;;;;;;;10.63;6.10;;;;;;;23.38;52.23;100081.44;5558498;32;33808;-56
2023/06/16 11:17:58;;;;;;;8.32;6.12;;;;;;;23.37;52.04;100080.63;5552362;32;34337;-56
2023/06/16 11:21:07;;;;;;;8.10;6.12;;;;;;;23.59;52.64;100080.87;5565145;32;33721;-56
2023/06/16 11:24:14;;;;;;;11.80;6.05;;;;;;;23.68;50.92;100081.41;5565022;32;33982;-56
2023/06/16 11:27:16;;;;;;;8.25;5.68;;;;;;;23.70;50.05;100079.06;5563322;32;33566;-55
2023/06/16 11:30:19;;;;;;;7.57;5.93;;;;;;;23.65;49.06;100077.44;5563106;32;33664;-56
2023/06/16 11:33:22;;;;;;;7.65;5.82;;;;;;;23.62;49.89;100082.88;5567782;32;33608;-56
2023/06/16 11:36:25;;;;;;;9.73;5.50;;;;;;;23.54;48.98;100079.28;5555149;32;34459;-57
2023/06/16 11:39:27;;;;;;;9.32;5.97;;;;;;;23.66;49.59;100078.22;5558220;32;33407;-57
2023/06/16 11:42:29;;;;;;;8.77;5.37;;;;;;;23.79;50.02;100070.53;5557609;32;34317;-57
2023/06/16 11:45:36;;;;;;;6.30;5.32;;;;;;;23.95;49.19;100073.03;5560208;32;33751;-57
2023/06/16 11:48:39;;;;;;;6.50;5.80;;;;;;;23.96;47.50;100069.12;5567661;32;33663;-57
2023/06/16 11:51:42;;;;;;;8.20;4.87;;;;;;;23.93;47.11;100059.72;5561205;32;33580;-56
2023/06/16 11:54:45;;;;;;;8.40;5.30;;;;;;;23.96;46.40;100055.44;5567664;32;33788;-57
2023/06/16 11:57:47;;;;;;;10.57;5.87;;;;;;;23.97;48.04;100051.53;5565037;32;34464;-56
2023/06/16 12:00:50;;;;;;;7.25;5.65;;;;;;;24.06;47.59;100038.31;5564512;32;34293;-57
2023/06/16 12:03:56;;;;;;;6.47;5.22;;;;;;;24.11;47.95;100041.50;5561033;32;33770;-57
2023/06/16 12:07:07;;;;;;;7.87;5.10;;;;;;;24.21;47.40;100040.00;5565460;32;33670;-57
2023/06/16 12:10:10;;;;;;;7.40;5.28;;;;;;;24.21;48.06;100040.00;5563060;32;33751;-57
2023/06/16 12:13:13;;;;;;;8.15;5.20;;;;;;;24.27;46.17;100029.44;5556236;32;33285;-56
2023/06/16 12:16:16;;;;;;;6.43;5.53;;;;;;;24.25;45.17;100038.06;5565017;32;32175;-57
2023/06/16 12:19:21;;;;;;;7.28;5.32;;;;;;;24.20;43.19;100027.44;5565467;32;33492;-57
2023/06/16 12:22:33;;;;;;;6.60;5.32;;;;;;;24.30;43.16;100031.44;5560581;32;33698;-57
2023/06/16 12:25:35;;;;;;;7.15;5.30;;;;;;;24.22;44.28;100036.09;5563829;32;34421;-57
2023/06/16 12:28:38;;;;;;;6.93;5.30;;;;;;;24.24;44.74;100025.53;5552887;32;33565;-57
2023/06/16 12:32:00;;;;;;;5.57;5.03;;;;;;;24.21;44.80;100026.31;5560495;32;33666;-57
2023/06/16 12:35:03;;;;;;;6.37;5.12;;;;;;;24.27;45.30;100029.44;5560402;32;32337;-57
2023/06/16 12:38:05;;;;;;;8.85;6.12;;;;;;;24.43;46.32;100035.47;5558693;32;33705;-57
2023/06/16 12:41:15;;;;;;;6.28;5.35;;;;;;;24.42;45.85;100017.47;5553548;32;33575;-56
2023/06/16 12:44:17;;;;;;;7.62;6.18;;;;;;;24.48;48.29;100015.94;5562128;32;33230;-56
2023/06/16 12:47:23;;;;;;;7.87;5.97;;;;;;;24.54;46.34;100019.87;5569357;32;33611;-56
2023/06/16 12:50:25;;;;;;;;;;;;;;;24.48;47.23;100013.19;5569127;32;33684;-55
2023/06/16 12:53:27;;;;;;;9.32;6.32;;;;;;;24.56;47.91;100023.00;5570214;32;33918;-56
2023/06/16 12:56:30;;;;;;;7.47;6.55;;;;;;;24.47;47.70;100010.81;5563259;32;34341;-57
2023/06/16 12:59:32;;;;;;;8.77;6.95;;;;;;;24.55;49.14;100002.25;5561149;32;33708;-57
2023/06/16 13:02:35;;;;;;;7.57;6.40;;;;;;;24.66;48.18;100007.00;5553985;32;33527;-57
2023/06/16 13:05:37;;;;;;;9.10;6.30;;;;;;;24.64;47.36;100004.66;5552037;32;34354;-56
2023/06/16 13:08:42;;;;;;;7.20;6.43;;;;;;;24.67;46.94;100006.63;5551923;32;34351;-57
2023/06/16 13:11:44;;;;;;;7.47;6.30;;;;;;;24.67;47.13;99995.66;5562691;32;33569;-57
2023/06/16 13:14:47;;;;;;;11.23;6.50;;;;;;;24.70;47.54;99999.56;5566402;32;33645;-56
2023/06/16 13:17:49;;;;;;;8.63;6.00;;;;;;;24.83;45.42;99998.06;5567246;32;33932;-56
2023/06/16 13:20:52;;;;;;;6.70;5.87;;;;;;;24.81;45.71;99995.72;5556896;32;34286;-56
2023/06/16 13:23:54;;;;;;;7.87;5.95;;;;;;;24.83;45.76;99990.66;5549099;32;33748;-56
2023/06/16 13:26:58;;;;;;;12.07;6.00;;;;;;;24.84;47.12;99992.22;5565621;32;34294;-56
2023/06/16 13:30:00;;;;;;;7.78;5.93;;;;;;;24.80;48.25;99996.09;5569117;32;33730;-56
2023/06/16 13:33:02;;;;;;;8.82;5.68;;;;;;;24.66;45.67;99988.59;5564738;32;33638;-57
2023/06/16 13:36:05;;;;;;;8.63;5.85;;;;;;;24.67;46.69;99992.13;5562392;32;34399;-56
2023/06/16 13:39:09;;;;;;;8.63;5.97;;;;;;;24.55;46.30;99996.00;5569358;32;33368;-56
2023/06/16 13:42:12;;;;;;;9.23;6.43;;;;;;;24.46;47.39;99993.59;5561606;32;32631;-55
2023/06/16 13:45:14;;;;;;;10.80;6.45;;;;;;;24.42;47.14;99983.78;5555270;32;34384;-56
2023/06/16 13:48:17;;;;;;;9.32;7.37;;;;;;;24.32;47.92;99988.03;5569119;32;33339;-56
2023/06/16 13:51:23;;;;;;;8.45;7.55;;;;;;;24.31;48.31;99984.50;5566167;32;33886;-55
2023/06/16 13:54:26;;;;;;;15.57;7.97;;;;;;;24.24;48.40;99991.88;5553249;32;33262;-56
2023/06/16 13:57:28;;;;;;;12.77;8.25;;;;;;;24.15;49.10;99982.03;5559622;32;33733;-56
2023/06/16 14:00:31;;;;;;;27.25;7.93;;;;;;;24.14;49.45;99982.44;5548013;32;33962;-55
2023/06/16 14:03:34;;;;;;;8.80;7.65;;;;;;;24.17;50.16;99981.66;5561207;32;34353;-56
2023/06/16 14:06:37;;;;;;;10.15;7.22;;;;;;;24.18;48.96;99982.47;5567776;32;34056;-55
2023/06/16 14:09:39;;;;;;;9.50;7.05;;;;;;;24.12;48.59;99974.59;5568115;32;33221;-56
2023/06/16 14:12:44;;;;;;;16.75;7.35;;;;;;;24.14;48.00;99971.50;5567900;32;34291;-55
2023/06/16 14:15:50;;;;;;;9.88;7.00;;;;;;;24.02;48.41;99967.09;5568202;32;34085;-56
2023/06/16 14:18:52;;;;;;;15.02;7.70;;;;;;;24.03;47.87;99973.34;5568277;32;34411;-56
2023/06/16 14:21:55;;;;;;;9.35;6.55;;;;;;;23.99;48.84;99975.28;5568303;32;33550;-56
2023/06/16 14:24:57;;;;;;;9.45;6.97;;;;;;;23.99;47.05;99967.06;5568628;32;33732;-55
2023/06/16 14:28:00;;;;;;;7.87;6.78;;;;;;;24.01;48.22;99967.50;5568307;32;33950;-56
2023/06/16 14:31:03;;;;;;;16.25;7.45;;;;;;;24.10;47.25;99957.75;5568620;32;33900;-56
2023/06/16 14:34:06;;;;;;;10.45;6.85;;;;;;;24.08;48.37;99956.59;5567587;32;34180;-55
2023/06/16 14:37:08;;;;;;;9.93;6.57;;;;;;;24.04;48.18;99959.31;5565738;32;33309;-56
2023/06/16 14:40:11;;;;;;;7.20;6.15;;;;;;;24.09;46.52;99950.72;5567810;32;34177;-55
2023/06/16 14:43:13;;;;;;;8.13;7.07;;;;;;;24.18;45.27;99947.63;5567416;32;34063;-56
2023/06/16 14:46:16;;;;;;;11.02;6.50;;;;;;;24.10;45.93;99946.78;5567191;32;34275;-56
2023/06/16 14:49:18;;;;;;;9.93;6.43;;;;;;;24.12;44.67;99952.69;5568087;32;34308;-56
2023/06/16 14:52:20;;;;;;;7.12;6.18;;;;;;;24.12;45.37;99949.16;5567933;32;34246;-57
2023/06/16 14:55:23;;;;;;;9.40;6.68;;;;;;;24.09;45.89;99950.72;5563000;32;33349;-56
2023/06/16 14:58:28;;;;;;;7.12;5.78;;;;;;;24.08;48.28;99946.41;5548882;32;33307;-56
2023/06/16 15:01:30;;;;;;;10.18;6.50;;;;;;;24.09;47.91;99958.94;5548698;32;33700;-57
2023/06/16 15:04:33;;;;;;;8.73;6.75;;;;;;;24.06;48.42;99954.22;5548183;32;34353;-57
2023/06/16 15:07:35;;;;;;;7.47;5.65;;;;;;;24.09;46.77;99944.44;5548595;32;33823;-58
